Time;durP1;ratioP1;P1;durP2;ratioP2;P2;SDS_P1;SDS_P2;PMS_P1;PMS_P2;Temp;Humidity;BMP_temperature;BMP_pressure;BME280_temperature;BME280_humidity;BME280_pressure;Samples;Min_cycle;Max_cycle;Signal;HPM_P1;HPM_P2
2023/10/09 00:02:09;;;;;;;18.75;6.50;;;;;;;17.02;68.17;99486.81;5092302;28;20024;-48
2023/10/09 00:04:36;;;;;;;14.43;6.25;;;;;;;16.48;68.71;99494.50;5092690;28;20024;-47
2023/10/09 00:07:03;;;;;;;8.85;5.53;;;;;;;15.92;70.50;99493.56;5092268;28;20393;-48
2023/10/09 00:09:33;;;;;;;13.75;6.18;;;;;;;15.52;72.15;99492.97;5092289;28;20078;-47
2023/10/09 00:12:00;;;;;;;16.13;6.78;;;;;;;15.28;73.61;99497.19;5091236;28;20031;-47
2023/10/09 00:14:33;;;;;;;17.88;8.43;;;;;;;15.04;74.20;99490.78;5090903;28;20059;-48
2023/10/09 00:17:17;;;;;;;28.10;12.70;;;;;;;14.94;75.59;99486.72;5092229;28;20516;-48
2023/10/09 00:19:59;;;;;;;15.18;7.30;;;;;;;15.04;76.25;99494.22;5092149;28;20523;-48
2023/10/09 00:25:09;;;;;;;16.77;6.85;;;;;;;15.36;76.24;99494.28;5092429;28;20062;-48
2023/10/09 00:27:36;;;;;;;19.08;7.72;;;;;;;15.51;76.07;99496.63;5092116;28;20482;-48
2023/10/09 00:30:03;;;;;;;15.65;8.27;;;;;;;15.47;75.42;99490.94;5091978;28;20024;-47
2023/10/09 00:32:33;;;;;;;24.70;9.20;;;;;;;15.48;75.72;99486.50;5090808;28;20107;-48
2023/10/09 00:35:35;;;;;;;13.35;6.32;;;;;;;15.47;75.19;99490.94;5091182;28;20078;-48
2023/10/09 00:37:45;;;;;;;23.52;8.38;;;;;;;15.28;75.31;99486.59;5091726;28;20081;-47
2023/10/09 00:40:20;;;;;;;30.40;10.75;;;;;;;15.29;76.52;99482.91;5090528;28;20038;-48
2023/10/09 00:42:47;;;;;;;21.05;10.25;;;;;;;15.49;77.19;99488.09;5091882;28;20020;-47
2023/10/09 00:45:24;;;;;;;24.73;10.43;;;;;;;15.31;77.18;99486.16;5091787;28;20113;-47
2023/10/09 00:47:51;;;;;;;17.85;8.95;;;;;;;15.02;78.54;99479.59;5091878;28;20024;-47
2023/10/09 00:53:11;;;;;;;12.60;6.07;;;;;;;14.70;81.85;99490.88;5091792;28;20055;-48
2023/10/09 00:58:15;;;;;;;86.18;77.28;;;;;;;14.63;84.15;99471.59;5091776;28;20024;-48
2023/10/09 01:00:45;;;;;;;201.02;184.15;;;;;;;14.77;85.63;99480.28;5091745;28;20035;-48
2023/10/09 01:05:56;;;;;;;14.10;7.40;;;;;;;14.97;85.79;99477.59;5091665;28;20075;-48
2023/10/09 01:08:48;;;;;;;13.18;6.93;;;;;;;14.89;85.20;99468.06;5091558;28;20034;-48
2023/10/09 01:11:09;;;;;;;9.88;5.97;;;;;;;14.81;85.19;99465.66;5091155;28;20402;-47
2023/10/09 01:13:52;;;;;;;11.95;5.22;;;;;;;14.84;85.14;99456.47;5091841;28;20034;-48
2023/10/09 01:16:22;;;;;;;12.40;6.10;;;;;;;14.88;85.30;99460.31;5090503;28;20028;-48
2023/10/09 01:18:53;;;;;;;14.50;6.00;;;;;;;15.11;86.04;99465.09;5090005;28;20556;-48
2023/10/09 01:21:24;;;;;;;16.02;5.75;;;;;;;15.39;85.15;99462.09;5091359;28;20439;-48
2023/10/09 01:24:03;;;;;;;10.48;6.15;;;;;;;15.60;84.31;99458.34;5091546;28;20028;-48
2023/10/09 01:26:34;;;;;;;10.68;5.82;;;;;;;15.67;82.39;99460.91;5090151;28;20043;-48
2023/10/09 01:29:01;;;;;;;10.57;5.32;;;;;;;15.49;81.30;99459.00;5091489;28;20032;-48
2023/10/09 01:31:27;;;;;;;14.40;6.97;;;;;;;15.21;79.74;99460.16;5091332;28;20527;-48
2023/10/09 01:33:59;;;;;;;16.48;8.15;;;;;;;14.98;81.05;99450.91;5091330;28;20024;-48
2023/10/09 01:36:34;;;;;;;16.98;7.90;;;;;;;14.89;81.60;99454.00;5091605;28;20032;-48
2023/10/09 01:39:07;;;;;;;19.30;9.98;;;;;;;14.89;82.21;99446.06;5091514;28;20055;-48
2023/10/09 01:41:34;;;;;;;18.73;10.60;;;;;;;15.01;82.52;99457.66;5091243;28;20036;-48
2023/10/09 01:44:11;;;;;;;10.40;7.60;;;;;;;15.18;82.11;99455.31;5091300;28;20020;-48
2023/10/09 01:46:37;;;;;;;16.55;6.85;;;;;;;14.99;80.03;99454.41;5094062;28;20111;-47
2023/10/09 01:49:17;;;;;;;16.15;7.75;;;;;;;14.73;80.45;99452.66;5094901;28;20524;-48
2023/10/09 01:51:42;;;;;;;18.85;9.95;;;;;;;14.58;81.13;99452.91;5094964;28;20490;-48
2023/10/09 01:54:08;;;;;;;18.73;8.80;;;;;;;14.55;81.76;99448.81;5094809;28;20021;-48
2023/10/09 01:56:38;;;;;;;15.68;8.43;;;;;;;14.65;81.57;99447.59;5094707;28;20035;-48
2023/10/09 01:59:06;;;;;;;11.27;6.65;;;;;;;14.67;80.83;99442.91;5094697;28;20027;-48
2023/10/09 02:01:33;;;;;;;16.50;6.88;;;;;;;14.49;80.65;99448.84;5094610;28;20024;-48
2023/10/09 02:04:05;;;;;;;13.13;6.45;;;;;;;14.27;81.10;99443.78;5094916;28;20028;-48
2023/10/09 02:06:32;;;;;;;17.17;8.05;;;;;;;14.11;81.77;99445.03;5095004;28;20028;-47
2023/10/09 02:08:59;;;;;;;14.52;5.88;;;;;;;14.11;83.05;99458.22;5094636;28;20146;-47
2023/10/09 02:11:46;;;;;;;23.50;9.57;;;;;;;14.21;83.31;99455.19;5094465;28;20031;-47
2023/10/09 02:14:20;;;;;;;12.05;6.10;;;;;;;14.20;82.60;99445.63;5094125;28;20076;-48
2023/10/09 02:17:02;;;;;;;;;;;;;;;14.21;82.96;99457.00;5093889;28;20042;-48
2023/10/09 02:19:34;;;;;;;14.40;6.75;;;;;;;14.29;82.71;99448.88;5093123;28;20339;-48
2023/10/09 02:22:04;;;;;;;12.88;6.05;;;;;;;14.42;82.42;99451.47;5092972;28;20024;-48
2023/10/09 02:27:26;;;;;;;10.60;5.90;;;;;;;14.15;81.82;99456.00;5094228;28;20085;-48
2023/10/09 02:29:52;;;;;;;16.33;7.80;;;;;;;14.03;82.76;99460.28;5093144;28;20059;-48
2023/10/09 02:32:25;;;;;;;17.30;7.38;;;;;;;13.96;83.17;99452.34;5094077;28;20105;-48
2023/10/09 02:34:53;;;;;;;11.98;6.38;;;;;;;13.88;83.46;99452.53;5094125;28;20032;-48
2023/10/09 02:37:25;;;;;;;13.07;7.35;;;;;;;13.77;83.68;99452.13;5093940;28;20088;-48
2023/10/09 02:39:52;;;;;;;12.48;6.55;;;;;;;13.69;84.40;99462.88;5094064;28;20031;-48
2023/10/09 02:42:26;;;;;;;19.83;7.53;;;;;;;13.81;85.07;99459.66;5093717;28;20031;-48
2023/10/09 02:44:52;;;;;;;9.32;6.25;;;;;;;14.05;85.05;99466.97;5093859;28;20486;-48
2023/10/09 02:47:29;;;;;;;13.23;6.25;;;;;;;14.21;84.61;99462.28;5092480;28;20027;-48
2023/10/09 02:50:00;;;;;;;10.07;5.72;;;;;;;14.44;83.79;99461.84;5093837;28;20070;-48
2023/10/09 02:52:32;;;;;;;9.93;5.07;;;;;;;14.58;82.83;99463.47;5094063;28;20444;-48
2023/10/09 02:55:07;;;;;;;10.48;5.10;;;;;;;14.60;81.86;99458.78;5093675;28;20115;-48
2023/10/09 02:57:36;;;;;;;16.17;6.07;;;;;;;14.52;81.28;99449.22;5091753;28;20032;-48
2023/10/09 03:00:18;;;;;;;13.35;5.47;;;;;;;14.56;81.56;99452.28;5093557;28;20114;-48
2023/10/09 03:02:46;;;;;;;13.60;5.90;;;;;;;14.60;80.85;99455.34;5093529;28;20054;-48
2023/10/09 03:05:12;;;;;;;14.02;5.63;;;;;;;14.58;80.85;99447.59;5093432;28;20052;-47
2023/10/09 03:07:39;;;;;;;13.10;5.78;;;;;;;14.54;80.51;99451.66;5093697;28;20017;-47
2023/10/09 03:10:09;;;;;;;16.80;8.82;;;;;;;14.62;80.96;99448.00;5092127;28;20569;-48
2023/10/09 03:12:36;;;;;;;8.50;5.40;;;;;;;14.88;81.23;99445.28;5093579;28;20374;-47
2023/10/09 03:15:02;;;;;;;9.52;5.68;;;;;;;15.02;79.92;99455.81;5092242;28;20445;-48
2023/10/09 03:17:28;;;;;;;11.05;5.47;;;;;;;15.01;79.75;99456.81;5093182;28;20039;-49
2023/10/09 03:19:54;;;;;;;17.92;5.97;;;;;;;15.15;79.66;99463.66;5091925;28;20024;-48
2023/10/09 03:22:20;;;;;;;12.50;6.20;;;;;;;15.02;78.26;99459.25;5093032;28;20039;-48
2023/10/09 03:24:46;;;;;;;12.68;5.95;;;;;;;14.75;78.39;99455.91;5091796;28;20024;-48
2023/10/09 03:27:14;;;;;;;13.32;5.55;;;;;;;14.52;78.85;99457.13;5093019;28;20081;-48
2023/10/09 03:29:40;;;;;;;10.68;4.97;;;;;;;14.47;79.43;99464.88;5093246;28;20016;-47
2023/10/09 03:32:06;;;;;;;19.10;5.70;;;;;;;14.38;79.73;99455.53;5092965;28;20035;-48
2023/10/09 03:34:32;;;;;;;10.90;5.80;;;;;;;14.47;80.01;99467.53;5092883;28;20098;-48
2023/10/09 03:37:04;;;;;;;8.55;5.68;;;;;;;14.54;79.16;99460.38;5092834;28;20063;-48
2023/10/09 03:39:47;;;;;;;16.65;6.10;;;;;;;14.41;79.15;99463.06;5092993;28;20024;-48
2023/10/09 03:42:19;;;;;;;11.75;5.13;;;;;;;14.39;79.63;99465.09;5092791;28;20028;-47
2023/10/09 03:44:53;;;;;;;11.30;5.63;;;;;;;14.36;79.96;99468.94;5092758;28;20520;-47
2023/10/09 03:47:22;;;;;;;18.60;8.43;;;;;;;14.41;80.18;99471.00;5093014;28;20111;-47
2023/10/09 03:49:51;;;;;;;18.05;6.78;;;;;;;14.52;80.08;99466.91;5091323;28;20101;-48
2023/10/09 03:52:18;;;;;;;10.43;5.53;;;;;;;14.54;79.00;99467.50;5092493;28;20028;-47
2023/10/09 03:54:46;;;;;;;10.60;5.05;;;;;;;14.39;79.00;99468.56;5092611;28;20482;-48
2023/10/09 03:57:19;;;;;;;11.15;5.35;;;;;;;14.29;79.77;99467.34;5092460;28;20505;-48
2023/10/09 03:59:48;;;;;;;13.93;5.97;;;;;;;14.37;80.59;99464.50;5092402;28;20036;-48
2023/10/09 04:02:15;;;;;;;15.25;8.95;;;;;;;14.55;80.32;99464.66;5092279;28;20485;-48
2023/10/09 04:04:46;;;;;;;14.98;8.27;;;;;;;14.62;79.84;99463.88;5092393;28;20026;-48
2023/10/09 04:07:16;;;;;;;17.67;9.45;;;;;;;14.56;79.32;99465.50;5092605;28;20400;-48
2023/10/09 04:09:44;;;;;;;16.05;8.63;;;;;;;14.48;79.49;99463.84;5092118;28;20493;-48
2023/10/09 04:14:49;;;;;;;18.08;10.57;;;;;;;14.74;79.87;99478.06;5092278;28;20135;-47
2023/10/09 04:22:39;;;;;;;18.08;6.30;;;;;;;15.75;76.95;99466.81;5092110;28;20031;-48
2023/10/09 04:25:14;;;;;;;22.20;6.25;;;;;;;15.89;75.52;99464.84;5092015;28;20039;-48
2023/10/09 04:27:46;;;;;;;17.85;4.80;;;;;;;16.04;74.63;99461.91;5092070;28;20031;-48
2023/10/09 04:30:15;;;;;;;21.17;5.90;;;;;;;16.05;73.77;99462.69;5091960;28;20106;-48
2023/10/09 04:32:45;;;;;;;23.48;5.57;;;;;;;16.13;73.44;99462.44;5074595;28;20032;-48
2023/10/09 04:37:45;;;;;;;13.82;5.25;;;;;;;16.11;72.10;99462.63;5091981;28;20025;-48
2023/10/09 04:40:12;;;;;;;10.30;5.13;;;;;;;16.04;72.30;99469.03;5091821;28;20039;-47
2023/10/09 04:42:38;;;;;;;17.83;6.38;;;;;;;16.06;72.19;99467.78;5092068;28;20664;-48
2023/10/09 04:47:36;;;;;;;27.85;20.95;;;;;;;15.98;71.41;99474.16;5091818;28;20020;-47
2023/10/09 04:50:09;;;;;;;16.65;5.15;;;;;;;15.87;71.10;99464.25;5091850;28;20483;-48
2023/10/09 04:57:38;;;;;;;12.93;5.67;;;;;;;14.92;71.89;99462.34;5090661;28;20024;-48
2023/10/09 05:02:57;;;;;;;21.45;13.85;;;;;;;14.42;73.16;99469.16;5091709;28;20047;-48
2023/10/09 05:16:05;;;;;;;17.63;5.35;;;;;;;15.21;73.93;99477.88;5091905;28;20554;-48
2023/10/09 05:18:36;;;;;;;28.95;6.72;;;;;;;15.34;73.34;99475.16;5089998;28;20093;-48
2023/10/09 05:24:15;;;;;;;17.10;6.07;;;;;;;15.40;72.37;99476.16;5095807;28;20081;-48
2023/10/09 05:37:34;;;;;;;13.65;5.90;;;;;;;15.22;72.09;99485.59;5095237;28;20028;-48
2023/10/09 05:50:34;;;;;;;20.85;6.28;;;;;;;15.42;72.01;99471.47;5095336;28;20059;-48
2023/10/09 06:03:16;;;;;;;35.35;14.77;;;;;;;16.10;70.13;99484.88;5094838;28;20028;-48
2023/10/09 06:03:55;;;;;;;30.17;25.08;;;;;;;16.12;69.29;99484.66;5094650;28;20100;-48
2023/10/09 06:06:33;;;;;;;20.95;13.50;;;;;;;15.94;69.14;99477.47;5094900;28;20024;-48
2023/10/09 06:14:45;;;;;;;24.02;8.52;;;;;;;17.14;67.49;99486.88;5094580;28;20039;-47
2023/10/09 06:19:43;;;;;;;24.73;8.23;;;;;;;18.20;65.26;99491.69;5094243;28;20040;-47
2023/10/09 06:24:54;;;;;;;24.27;7.40;;;;;;;18.43;62.29;99490.88;5094395;28;20089;-48
2023/10/09 06:27:25;;;;;;;31.17;7.88;;;;;;;18.28;61.60;99488.69;5093240;28;20024;-48
2023/10/09 06:29:51;;;;;;;31.52;9.23;;;;;;;17.94;61.59;99491.09;5094286;28;20028;-48
2023/10/09 06:34:45;;;;;;;46.33;16.33;;;;;;;17.41;62.55;99490.00;5094453;28;20068;-47
2023/10/09 06:45:09;;;;;;;37.08;10.88;;;;;;;17.69;62.45;99485.94;5092940;28;20032;-48
2023/10/09 06:47:41;;;;;;;14.55;6.35;;;;;;;17.72;62.09;99498.75;5093928;28;20020;-48
2023/10/09 06:55:48;;;;;;;13.33;5.97;;;;;;;18.09;60.79;99507.41;5094050;28;20039;-48
2023/10/09 06:58:27;;;;;;;13.20;6.68;;;;;;;18.20;60.37;99497.81;5093696;28;20034;-48
2023/10/09 07:01:19;;;;;;;30.58;8.73;;;;;;;18.62;60.17;99505.66;5093666;28;20024;-48
2023/10/09 07:03:52;;;;;;;32.58;8.50;;;;;;;19.32;59.00;99494.09;5093449;28;20063;-48
2023/10/09 07:06:47;;;;;;;19.48;7.45;;;;;;;20.03;56.89;99501.72;5093806;28;20393;-48
2023/10/09 07:17:04;;;;;;;17.00;6.45;;;;;;;21.72;50.83;99508.44;5093270;28;20082;-45
2023/10/09 07:22:03;;;;;;;38.67;10.68;;;;;;;22.54;49.66;99498.38;5093155;28;20494;-46
2023/10/09 07:24:43;;;;;;;45.13;11.88;;;;;;;23.11;47.91;99499.44;5092202;28;20024;-46
2023/10/09 07:27:15;;;;;;;33.30;8.32;;;;;;;23.62;46.33;99510.28;5092298;28;20032;-45
2023/10/09 07:29:50;;;;;;;46.90;11.55;;;;;;;24.09;44.72;99508.47;5093138;28;20028;-45
2023/10/09 07:32:22;;;;;;;29.23;9.00;;;;;;;24.33;43.72;99503.34;5093277;28;20024;-45
2023/10/09 07:34:54;;;;;;;34.58;8.05;;;;;;;24.33;43.86;99501.47;5092970;28;20028;-46
2023/10/09 07:37:22;;;;;;;35.15;8.45;;;;;;;24.51;43.41;99510.84;5091661;28;20440;-45
2023/10/09 07:39:57;;;;;;;33.83;7.60;;;;;;;24.70;43.22;99512.94;5092858;28;20490;-46
2023/10/09 07:42:33;;;;;;;28.58;7.03;;;;;;;25.05;43.00;99512.00;5092827;28;20484;-46
2023/10/09 07:45:11;;;;;;;34.80;7.72;;;;;;;25.46;42.08;99513.69;5092365;28;20056;-46
2023/10/09 07:50:22;;;;;;;33.28;8.52;;;;;;;26.40;40.07;99515.38;5092764;28;20084;-46
2023/10/09 07:52:49;;;;;;;39.70;6.82;;;;;;;26.78;39.36;99504.75;5092573;28;20032;-46
2023/10/09 07:55:26;;;;;;;32.78;7.63;;;;;;;27.27;38.62;99515.22;5092549;28;20044;-46
2023/10/09 07:57:53;;;;;;;32.63;7.43;;;;;;;28.06;37.40;99508.38;5091400;28;20047;-46
2023/10/09 08:00:37;;;;;;;34.60;6.97;;;;;;;28.73;35.89;99509.88;5074642;28;20458;-46
2023/10/09 08:03:09;;;;;;;24.48;7.45;;;;;;;29.35;34.95;99509.41;5091061;28;20060;-46
2023/10/09 08:05:44;;;;;;;26.92;6.85;;;;;;;29.82;34.27;99507.25;5092668;28;20032;-46
2023/10/09 08:09:17;;;;;;;47.38;8.23;;;;;;;30.26;33.73;99503.69;5092316;28;20037;-46
2023/10/09 08:16:24;;;;;;;28.15;7.82;;;;;;;30.95;32.84;99498.84;5092261;28;20115;-46
2023/10/09 08:18:51;;;;;;;44.00;7.00;;;;;;;31.30;32.20;99494.28;5091959;28;20036;-46
2023/10/09 08:21:41;;;;;;;61.20;8.52;;;;;;;31.57;31.84;99495.91;5091988;28;20099;-46
2023/10/09 08:24:35;;;;;;;44.00;10.27;;;;;;;32.03;31.44;99504.47;5091992;28;20047;-46
2023/10/09 08:27:28;;;;;;;41.92;8.20;;;;;;;31.94;31.25;99506.38;5091939;28;20505;-46
2023/10/09 08:29:38;;;;;;;35.22;8.15;;;;;;;31.62;30.97;99505.78;5092051;28;20028;-46
2023/10/09 08:32:18;;;;;;;34.10;7.75;;;;;;;31.49;31.84;99507.53;5090984;28;20039;-46
2023/10/09 08:34:53;;;;;;;29.70;8.07;;;;;;;31.61;31.31;99513.16;5092014;28;20062;-46
2023/10/09 08:37:25;;;;;;;29.20;8.27;;;;;;;31.78;31.10;99508.81;5091936;28;20031;-46
2023/10/09 08:39:50;;;;;;;25.17;7.47;;;;;;;31.63;32.61;99510.09;5092047;28;20078;-46
2023/10/09 08:42:17;;;;;;;32.88;9.13;;;;;;;30.22;35.84;99513.56;5091849;28;20096;-46
2023/10/09 08:44:44;;;;;;;30.90;11.43;;;;;;;29.02;38.79;99517.66;5091852;28;20036;-46
2023/10/09 08:47:11;;;;;;;39.00;9.10;;;;;;;28.25;39.35;99516.41;5092012;28;20367;-46
2023/10/09 08:49:37;;;;;;;43.33;11.57;;;;;;;28.55;38.68;99514.28;5090514;28;20107;-46
2023/10/09 08:52:04;;;;;;;61.67;13.45;;;;;;;29.02;38.11;99515.75;5091783;28;20032;-46
2023/10/09 08:54:33;;;;;;;72.63;17.33;;;;;;;30.60;35.28;99502.25;5090475;28;20024;-46
2023/10/09 08:56:58;;;;;;;60.22;15.57;;;;;;;31.60;33.66;99506.09;5095102;28;20017;-46
2023/10/09 08:59:26;;;;;;;70.78;18.63;;;;;;;32.19;31.98;99496.59;5094612;28;20482;-46
2023/10/09 09:01:52;;;;;;;64.85;17.23;;;;;;;32.76;31.23;99498.13;5095721;28;20024;-46
2023/10/09 09:04:41;;;;;;;70.80;21.00;;;;;;;33.07;30.54;99496.97;5094903;28;20129;-46
2023/10/09 09:07:31;;;;;;;82.05;18.95;;;;;;;33.50;30.63;99498.56;5095803;28;20024;-47
2023/10/09 09:10:21;;;;;;;63.08;13.38;;;;;;;33.85;29.63;99495.53;5095800;28;20166;-46
2023/10/09 09:13:10;;;;;;;123.45;17.38;;;;;;;34.42;29.11;99490.09;5095621;28;20106;-46
2023/10/09 09:15:39;;;;;;;80.15;12.20;;;;;;;34.71;28.21;99491.03;5095285;28;20036;-46
2023/10/09 09:18:09;;;;;;;39.63;8.50;;;;;;;35.08;27.21;99485.50;5095202;28;20069;-47
2023/10/09 09:20:36;;;;;;;19.92;5.90;;;;;;;35.33;25.62;99485.47;5095587;28;20020;-47
2023/10/09 09:23:06;;;;;;;36.88;7.22;;;;;;;35.47;25.40;99485.06;5095326;28;20433;-47
2023/10/09 09:25:50;;;;;;;41.25;9.70;;;;;;;35.68;25.69;99479.41;5095470;28;20431;-48
2023/10/09 09:28:21;;;;;;;;;;;;;;;36.22;25.34;99478.88;5095854;28;20051;-49
2023/10/09 09:30:54;;;;;;;26.75;8.52;;;;;;;36.00;24.76;99485.72;5095340;28;20323;-48
2023/10/09 09:33:38;;;;;;;26.10;8.65;;;;;;;35.93;24.02;99483.59;5095302;28;20039;-48
2023/10/09 09:36:07;;;;;;;33.30;10.20;;;;;;;35.93;24.14;99489.06;5095208;28;20036;-49
2023/10/09 09:39:01;;;;;;;36.90;9.10;;;;;;;35.90;24.96;99478.84;5093881;28;20051;-49
2023/10/09 09:41:25;;;;;;;30.60;9.88;;;;;;;36.00;24.57;99478.31;5094841;28;20044;-49
2023/10/09 09:43:56;;;;;;;26.65;9.50;;;;;;;36.17;24.99;99479.16;5095090;28;20090;-49
2023/10/09 09:46:30;;;;;;;65.45;11.02;;;;;;;35.90;25.23;99484.31;5095029;28;20551;-49
2023/10/09 09:49:00;;;;;;;23.17;7.05;;;;;;;35.86;25.53;99477.16;5095064;28;20024;-49
2023/10/09 09:51:29;;;;;;;16.38;6.03;;;;;;;35.71;25.35;99476.00;5094861;28;20040;-49
2023/10/09 09:53:55;;;;;;;26.30;8.02;;;;;;;35.47;26.06;99491.31;5094954;28;20099;-48
2023/10/09 09:56:25;;;;;;;35.75;8.57;;;;;;;35.20;26.36;99482.78;5093524;28;20111;-49
2023/10/09 09:58:56;;;;;;;14.00;6.50;;;;;;;34.85;26.56;99489.88;5094822;28;20028;-48
2023/10/09 10:01:32;;;;;;;20.48;7.82;;;;;;;34.42;27.68;99484.66;5094713;28;20044;-48
2023/10/09 10:04:13;;;;;;;40.15;11.68;;;;;;;34.42;27.50;99486.59;5094669;28;20028;-48
2023/10/09 10:06:47;;;;;;;26.17;6.85;;;;;;;34.64;27.59;99490.00;5094365;28;20024;-48
2023/10/09 10:09:41;;;;;;;15.45;5.97;;;;;;;35.12;27.52;99483.69;5094619;28;20028;-48
2023/10/09 10:12:10;;;;;;;38.63;10.93;;;;;;;35.91;26.34;99474.94;5094863;28;20054;-46
2023/10/09 10:15:08;;;;;;;31.92;13.25;;;;;;;36.64;26.08;99472.06;5093199;28;20374;-49
2023/10/09 10:18:18;;;;;;;34.13;9.38;;;;;;;36.86;25.20;99463.16;5094164;28;20024;-49
2023/10/09 10:21:06;;;;;;;19.92;6.57;;;;;;;37.15;24.87;99466.56;5094410;28;20028;-49
2023/10/09 10:23:34;;;;;;;22.73;7.55;;;;;;;37.79;24.31;99475.19;5094229;28;20028;-49
2023/10/09 10:26:36;;;;;;;30.63;8.55;;;;;;;38.12;23.60;99469.16;5094282;28;20081;-49
2023/10/09 10:29:23;;;;;;;39.75;11.18;;;;;;;38.02;24.00;99463.47;5061497;28;20517;-50
2023/10/09 10:31:57;;;;;;;24.23;9.18;;;;;;;37.62;24.13;99459.25;5094227;28;20032;-50
2023/10/09 10:34:26;;;;;;;;;;;;;;;37.79;24.78;99453.28;5095188;28;20032;-50
2023/10/09 10:36:58;;;;;;;30.08;10.35;;;;;;;37.77;24.23;99463.81;5094057;28;19934;-49
2023/10/09 10:39:42;;;;;;;20.70;7.70;;;;;;;37.83;23.76;99464.31;5093031;28;20032;-49
2023/10/09 10:42:33;;;;;;;32.75;9.02;;;;;;;37.90;23.55;99456.22;5093940;28;20035;-50
2023/10/09 10:44:57;;;;;;;13.02;6.15;;;;;;;37.88;23.25;99459.31;5093924;28;20044;-49
2023/10/09 10:47:33;;;;;;;18.27;6.38;;;;;;;38.13;23.68;99454.28;5093931;28;20454;-49
2023/10/09 10:50:34;;;;;;;22.63;6.70;;;;;;;38.39;23.02;99447.22;5093922;28;20445;-49
2023/10/09 10:52:57;;;;;;;25.13;9.88;;;;;;;38.25;23.26;99449.75;5093513;28;20036;-49
2023/10/09 10:58:02;;;;;;;29.27;9.07;;;;;;;37.49;23.20;99444.88;5093713;28;20027;-49
2023/10/09 11:06:18;;;;;;;33.67;7.47;;;;;;;37.47;23.23;99441.72;5093799;28;20455;-49
2023/10/09 11:09:08;;;;;;;27.77;7.88;;;;;;;37.54;23.68;99428.16;5093726;28;20046;-49
2023/10/09 11:11:46;;;;;;;21.95;7.22;;;;;;;37.77;22.85;99430.94;5093357;28;20066;-49
2023/10/09 11:14:23;;;;;;;29.85;6.60;;;;;;;38.00;22.97;99427.41;5093396;28;20043;-49
2023/10/09 11:16:57;;;;;;;34.47;7.55;;;;;;;38.12;22.90;99421.75;5092441;28;20032;-49
2023/10/09 11:19:32;;;;;;;33.65;7.38;;;;;;;38.39;22.78;99416.28;5092257;28;20059;-50
2023/10/09 11:24:35;;;;;;;37.40;10.70;;;;;;;38.79;21.79;99412.91;5092384;28;20477;-49
2023/10/09 11:27:06;;;;;;;39.97;7.32;;;;;;;38.65;22.04;99408.03;5091824;28;20055;-49
2023/10/09 11:32:18;;;;;;;34.70;12.77;;;;;;;38.19;22.05;99405.41;5093099;28;20417;-49
2023/10/09 11:34:54;;;;;;;43.22;11.45;;;;;;;38.03;22.84;99400.03;5092970;28;20021;-49
2023/10/09 11:39:56;;;;;;;42.35;17.55;;;;;;;38.17;22.22;99397.56;5092906;28;20036;-49
2023/10/09 11:45:19;;;;;;;21.27;6.97;;;;;;;38.09;22.54;99390.41;5093137;28;20462;-49
2023/10/09 11:48:11;;;;;;;22.33;5.53;;;;;;;38.07;22.23;99380.94;5091679;28;20031;-50
2023/10/09 11:51:13;;;;;;;15.48;5.57;;;;;;;37.91;22.46;99384.63;5092954;28;20036;-49
2023/10/09 11:53:43;;;;;;;42.60;8.77;;;;;;;38.03;23.08;99371.84;5090666;28;20032;-50
2023/10/09 11:56:19;;;;;;;96.93;11.13;;;;;;;38.25;22.90;99373.75;5092543;28;20070;-49
2023/10/09 11:58:53;;;;;;;22.73;6.22;;;;;;;38.30;22.05;99373.47;5093116;28;20114;-49
2023/10/09 12:01:21;;;;;;;;;;;;;;;38.22;22.98;99369.03;5092973;28;20112;-49
2023/10/09 12:03:50;;;;;;;30.02;6.15;;;;;;;38.00;23.20;99369.84;5091118;28;20423;-49
2023/10/09 12:06:22;;;;;;;31.85;17.00;;;;;;;37.82;22.90;99361.34;5092399;28;20038;-50
2023/10/09 12:08:48;;;;;;;20.58;6.40;;;;;;;37.78;23.02;99361.28;5092499;28;20028;-49
2023/10/09 12:11:22;;;;;;;21.88;5.75;;;;;;;37.77;22.79;99352.28;5092250;28;20494;-49
2023/10/09 12:13:56;;;;;;;;;;;;;;;37.82;23.56;99347.66;5092768;28;20425;-49
2023/10/09 12:16:27;;;;;;;18.60;5.93;;;;;;;37.77;22.99;99349.56;5092337;28;19999;-49
2023/10/09 12:18:54;;;;;;;17.85;5.82;;;;;;;37.75;22.93;99340.91;5091989;28;20044;-49
2023/10/09 12:21:21;;;;;;;26.17;5.63;;;;;;;37.76;22.90;99339.75;5092127;28;20055;-49
2023/10/09 12:23:47;;;;;;;20.45;5.97;;;;;;;37.77;23.31;99335.03;5092131;28;20031;-50
2023/10/09 12:26:16;;;;;;;13.48;5.43;;;;;;;37.73;23.27;99331.44;5092289;28;20032;-49
2023/10/09 12:28:46;;;;;;;18.27;5.70;;;;;;;37.62;22.47;99330.50;5092103;28;20090;-49
2023/10/09 12:31:15;;;;;;;10.50;4.57;;;;;;;37.33;22.71;99330.78;5091990;28;20516;-49
2023/10/09 12:33:42;;;;;;;20.38;7.70;;;;;;;37.19;23.35;99327.81;5090705;28;20059;-49
2023/10/09 12:36:20;;;;;;;21.50;5.32;;;;;;;37.04;23.13;99321.22;5090699;28;20122;-49
2023/10/09 12:38:54;;;;;;;26.60;9.23;;;;;;;36.78;23.55;99316.44;5090673;28;20032;-49
2023/10/09 12:41:26;;;;;;;31.85;10.50;;;;;;;36.86;23.57;99314.63;5091805;28;20513;-49
2023/10/09 12:43:53;;;;;;;26.65;8.70;;;;;;;36.84;23.73;99314.22;5091951;28;20035;-49
2023/10/09 12:46:22;;;;;;;19.90;8.60;;;;;;;36.78;23.54;99320.00;5090536;28;20020;-49
2023/10/09 12:48:54;;;;;;;21.23;8.57;;;;;;;36.79;23.38;99307.88;5091777;28;20074;-49
2023/10/09 12:51:20;;;;;;;25.65;6.88;;;;;;;36.71;23.10;99302.66;5091793;28;20028;-49
2023/10/09 12:53:56;;;;;;;28.08;8.52;;;;;;;36.59;23.32;99296.13;5091686;28;20397;-49
2023/10/09 12:56:38;;;;;;;72.30;8.77;;;;;;;36.46;24.02;99302.09;5090477;28;20405;-49
2023/10/09 12:59:04;;;;;;;67.93;11.60;;;;;;;36.45;23.71;99304.03;5075823;28;20554;-49
2023/10/09 13:01:42;;;;;;;43.45;9.38;;;;;;;36.49;23.61;99296.72;5091670;28;20107;-49
2023/10/09 13:04:17;;;;;;;24.17;7.85;;;;;;;36.44;23.88;99299.72;5092156;28;20021;-49
2023/10/09 13:06:44;;;;;;;27.60;8.32;;;;;;;36.25;23.70;99296.97;5091652;28;20024;-49
2023/10/09 13:09:35;;;;;;;18.05;4.95;;;;;;;35.98;23.72;99294.81;5090396;28;20020;-49
2023/10/09 13:12:01;;;;;;;20.42;6.45;;;;;;;35.93;24.00;99284.16;5091946;28;20064;-49
2023/10/09 13:14:28;;;;;;;19.80;5.82;;;;;;;35.87;23.93;99291.03;5090315;28;20048;-49
2023/10/09 13:16:55;;;;;;;29.92;7.00;;;;;;;35.72;24.55;99275.50;5091603;28;20115;-49
2023/10/09 13:19:24;;;;;;;25.73;7.55;;;;;;;35.63;23.75;99272.13;5090200;28;20056;-49
2023/10/09 13:21:50;;;;;;;32.72;8.43;;;;;;;35.58;23.88;99270.47;5091449;28;20389;-49
2023/10/09 13:24:16;;;;;;;38.20;8.93;;;;;;;35.50;24.21;99269.50;5091558;28;20017;-49
2023/10/09 13:26:46;;;;;;;48.40;7.90;;;;;;;35.29;25.05;99275.19;5091569;28;20043;-49
2023/10/09 13:29:13;;;;;;;41.35;8.38;;;;;;;34.99;25.57;99269.34;5091560;28;20024;-47
2023/10/09 13:31:46;;;;;;;37.47;8.75;;;;;;;34.85;25.83;99277.13;5090114;28;20020;-47
2023/10/09 13:34:15;;;;;;;40.17;9.53;;;;;;;34.66;26.18;99267.69;5091504;28;20032;-47
2023/10/09 13:36:49;;;;;;;30.60;8.45;;;;;;;34.53;25.55;99266.91;5091363;28;20262;-47
2023/10/09 13:39:25;;;;;;;21.15;5.63;;;;;;;34.20;24.61;99258.94;5091320;28;20034;-47
2023/10/09 13:41:58;;;;;;;20.77;6.00;;;;;;;33.98;25.79;99250.09;5092582;28;20078;-47
2023/10/09 13:44:31;;;;;;;19.65;5.72;;;;;;;33.74;26.03;99252.88;5095385;28;20113;-47
2023/10/09 13:46:59;;;;;;;40.10;9.07;;;;;;;33.42;26.59;99241.72;5095114;28;20398;-47
2023/10/09 13:49:31;;;;;;;31.27;5.97;;;;;;;33.33;25.58;99241.84;5095020;28;20153;-47
2023/10/09 13:52:02;;;;;;;19.13;5.82;;;;;;;33.18;25.67;99234.31;5077657;28;20065;-47
2023/10/09 13:56:57;;;;;;;26.83;6.88;;;;;;;32.81;25.97;99239.66;5094845;28;20112;-47
2023/10/09 13:59:25;;;;;;;21.70;6.82;;;;;;;32.65;26.12;99231.34;5094893;28;20103;-47
2023/10/09 14:01:54;;;;;;;17.42;7.07;;;;;;;32.55;26.72;99232.53;5094659;28;20027;-46
2023/10/09 14:04:24;;;;;;;22.73;6.10;;;;;;;32.50;27.04;99221.03;5093462;28;20502;-47
2023/10/09 14:07:01;;;;;;;35.03;8.63;;;;;;;32.44;27.46;99229.41;5093423;28;20110;-47
2023/10/09 14:09:28;;;;;;;36.50;13.13;;;;;;;32.52;27.54;99216.06;5094723;28;20520;-46
2023/10/09 14:12:06;;;;;;;38.08;11.02;;;;;;;32.63;26.58;99211.84;5093180;28;20032;-47
2023/10/09 14:14:34;;;;;;;33.60;9.32;;;;;;;32.55;26.60;99216.22;5094509;28;20559;-47